sensor_id;sensor_type;location;lat;lon;timestamp;P1;durP1;ratioP1;P2;durP2;ratioP2
24813;SDS011;12904;50.088;11.414;2023-06-26T00:00:11;9.02;;;8.23;;
24813;SDS011;12904;50.088;11.414;2023-06-26T00:02:37;11.02;;;8.50;;
24813;SDS011;12904;50.088;11.414;2023-06-26T00:05:03;9.32;;;8.52;;
24813;SDS011;12904;50.088;11.414;2023-06-26T00:07:30;9.07;;;8.18;;
24813;SDS011;12904;50.088;11.414;2023-06-26T00:09:58;8.80;;;8.10;;
24813;SDS011;12904;50.088;11.414;2023-06-26T00:12:24;8.80;;;8.10;;
24813;SDS011;12904;50.088;11.414;2023-06-26T00:14:50;9.07;;;8.27;;
24813;SDS011;12904;50.088;11.414;2023-06-26T00:17:16;8.02;;;7.40;;
24813;SDS011;12904;50.088;11.414;2023-06-26T00:19:41;9.23;;;8.43;;
24813;SDS011;12904;50.088;11.414;2023-06-26T00:22:07;10.20;;;8.27;;
24813;SDS011;12904;50.088;11.414;2023-06-26T00:24:32;10.13;;;9.07;;
24813;SDS011;12904;50.088;11.414;2023-06-26T00:26:58;10.27;;;9.23;;
24813;SDS011;12904;50.088;11.414;2023-06-26T00:29:24;9.90;;;9.07;;
24813;SDS011;12904;50.088;11.414;2023-06-26T00:31:49;9.65;;;8.85;;
24813;SDS011;12904;50.088;11.414;2023-06-26T00:34:15;9.70;;;8.90;;
24813;SDS011;12904;50.088;11.414;2023-06-26T00:36:40;9.35;;;8.55;;
24813;SDS011;12904;50.088;11.414;2023-06-26T00:39:08;16.08;;;8.85;;
24813;SDS011;12904;50.088;11.414;2023-06-26T00:41:35;10.13;;;9.18;;
24813;SDS011;12904;50.088;11.414;2023-06-26T00:44:02;8.95;;;8.35;;
24813;SDS011;12904;50.088;11.414;2023-06-26T00:46:28;9.75;;;8.70;;
24813;SDS011;12904;50.088;11.414;2023-06-26T00:48:54;10.15;;;9.25;;
24813;SDS011;12904;50.088;11.414;2023-06-26T00:51:22;10.02;;;9.23;;
24813;SDS011;12904;50.088;11.414;2023-06-26T00:53:47;9.50;;;8.65;;
24813;SDS011;12904;50.088;11.414;2023-06-26T00:56:14;10.20;;;9.40;;
24813;SDS011;12904;50.088;11.414;2023-06-26T00:58:42;9.90;;;9.10;;
24813;SDS011;12904;50.088;11.414;2023-06-26T01:01:08;10.95;;;9.75;;
24813;SDS011;12904;50.088;11.414;2023-06-26T01:03:33;10.20;;;9.30;;
24813;SDS011;12904;50.088;11.414;2023-06-26T01:06:00;9.75;;;8.95;;
24813;SDS011;12904;50.088;11.414;2023-06-26T01:08:27;10.50;;;9.38;;
24813;SDS011;12904;50.088;11.414;2023-06-26T01:10:53;9.80;;;9.02;;
24813;SDS011;12904;50.088;11.414;2023-06-26T01:13:19;9.80;;;8.65;;
24813;SDS011;12904;50.088;11.414;2023-06-26T01:15:45;9.73;;;8.65;;
24813;SDS011;12904;50.088;11.414;2023-06-26T01:18:11;10.50;;;9.50;;
24813;SDS011;12904;50.088;11.414;2023-06-26T01:20:40;10.00;;;8.95;;
24813;SDS011;12904;50.088;11.414;2023-06-26T01:26:14;9.77;;;8.98;;
24813;SDS011;12904;50.088;11.414;2023-06-26T01:28:47;11.25;;;10.35;;
24813;SDS011;12904;50.088;11.414;2023-06-26T01:31:15;10.57;;;9.77;;
24813;SDS011;12904;50.088;11.414;2023-06-26T01:33:41;9.95;;;9.15;;
24813;SDS011;12904;50.088;11.414;2023-06-26T01:36:08;9.77;;;9.07;;
24813;SDS011;12904;50.088;11.414;2023-06-26T01:38:35;10.50;;;9.50;;
24813;SDS011;12904;50.088;11.414;2023-06-26T01:41:00;9.30;;;8.60;;
24813;SDS011;12904;50.088;11.414;2023-06-26T01:51:55;9.77;;;8.98;;
24813;SDS011;12904;50.088;11.414;2023-06-26T01:54:43;11.50;;;10.13;;
24813;SDS011;12904;50.088;11.414;2023-06-26T01:57:19;10.18;;;9.38;;
24813;SDS011;12904;50.088;11.414;2023-06-26T01:59:47;15.88;;;9.35;;
24813;SDS011;12904;50.088;11.414;2023-06-26T02:02:13;9.93;;;9.10;;
24813;SDS011;12904;50.088;11.414;2023-06-26T02:04:39;11.02;;;9.93;;
24813;SDS011;12904;50.088;11.414;2023-06-26T02:07:05;9.60;;;8.70;;
24813;SDS011;12904;50.088;11.414;2023-06-26T02:09:31;8.93;;;8.18;;
24813;SDS011;12904;50.088;11.414;2023-06-26T02:11:57;9.15;;;8.45;;
24813;SDS011;12904;50.088;11.414;2023-06-26T02:14:22;10.68;;;9.68;;
24813;SDS011;12904;50.088;11.414;2023-06-26T02:16:48;10.95;;;9.88;;
24813;SDS011;12904;50.088;11.414;2023-06-26T02:19:14;11.23;;;9.70;;
24813;SDS011;12904;50.088;11.414;2023-06-26T02:21:46;9.45;;;8.55;;
24813;SDS011;12904;50.088;11.414;2023-06-26T02:24:13;10.38;;;9.40;;
24813;SDS011;12904;50.088;11.414;2023-06-26T02:26:39;8.85;;;8.05;;
24813;SDS011;12904;50.088;11.414;2023-06-26T02:29:05;9.48;;;8.77;;
24813;SDS011;12904;50.088;11.414;2023-06-26T02:31:30;9.70;;;8.80;;
24813;SDS011;12904;50.088;11.414;2023-06-26T02:33:56;10.23;;;9.20;;
24813;SDS011;12904;50.088;11.414;2023-06-26T02:36:22;9.90;;;9.07;;
24813;SDS011;12904;50.088;11.414;2023-06-26T02:38:48;9.70;;;9.00;;
24813;SDS011;12904;50.088;11.414;2023-06-26T02:41:13;10.43;;;9.32;;
24813;SDS011;12904;50.088;11.414;2023-06-26T02:43:39;10.07;;;9.18;;
24813;SDS011;12904;50.088;11.414;2023-06-26T02:46:04;11.07;;;10.07;;
24813;SDS011;12904;50.088;11.414;2023-06-26T02:48:30;10.45;;;9.30;;
24813;SDS011;12904;50.088;11.414;2023-06-26T02:50:56;12.23;;;10.02;;
24813;SDS011;12904;50.088;11.414;2023-06-26T02:53:21;13.95;;;10.07;;
24813;SDS011;12904;50.088;11.414;2023-06-26T02:55:47;12.88;;;9.50;;
24813;SDS011;12904;50.088;11.414;2023-06-26T02:58:12;10.63;;;9.73;;
24813;SDS011;12904;50.088;11.414;2023-06-26T03:00:38;10.23;;;9.23;;
24813;SDS011;12904;50.088;11.414;2023-06-26T03:03:06;10.60;;;9.60;;
24813;SDS011;12904;50.088;11.414;2023-06-26T03:05:32;10.68;;;9.63;;
24813;SDS011;12904;50.088;11.414;2023-06-26T03:07:58;11.68;;;10.68;;
24813;SDS011;12904;50.088;11.414;2023-06-26T03:10:23;11.50;;;10.32;;
24813;SDS011;12904;50.088;11.414;2023-06-26T03:12:49;13.23;;;10.00;;
24813;SDS011;12904;50.088;11.414;2023-06-26T03:15:15;11.73;;;9.95;;
24813;SDS011;12904;50.088;11.414;2023-06-26T03:17:41;10.73;;;9.82;;
24813;SDS011;12904;50.088;11.414;2023-06-26T03:20:07;10.80;;;9.80;;
24813;SDS011;12904;50.088;11.414;2023-06-26T03:22:33;12.25;;;9.18;;
24813;SDS011;12904;50.088;11.414;2023-06-26T03:24:59;10.30;;;9.30;;
24813;SDS011;12904;50.088;11.414;2023-06-26T03:27:25;9.60;;;8.50;;
24813;SDS011;12904;50.088;11.414;2023-06-26T03:29:51;8.57;;;7.78;;
24813;SDS011;12904;50.088;11.414;2023-06-26T03:32:17;9.80;;;9.00;;
24813;SDS011;12904;50.088;11.414;2023-06-26T03:34:43;7.90;;;7.30;;
24813;SDS011;12904;50.088;11.414;2023-06-26T03:37:08;9.77;;;7.95;;
24813;SDS011;12904;50.088;11.414;2023-06-26T03:39:34;11.50;;;7.63;;
24813;SDS011;12904;50.088;11.414;2023-06-26T03:42:00;10.25;;;9.35;;
24813;SDS011;12904;50.088;11.414;2023-06-26T03:44:26;10.07;;;9.07;;
24813;SDS011;12904;50.088;11.414;2023-06-26T03:46:52;10.40;;;9.60;;
24813;SDS011;12904;50.088;11.414;2023-06-26T03:49:18;12.50;;;11.40;;
24813;SDS011;12904;50.088;11.414;2023-06-26T03:51:44;11.63;;;10.73;;
24813;SDS011;12904;50.088;11.414;2023-06-26T03:54:10;11.23;;;10.23;;
24813;SDS011;12904;50.088;11.414;2023-06-26T03:56:36;12.90;;;11.65;;
24813;SDS011;12904;50.088;11.414;2023-06-26T03:59:01;12.63;;;11.52;;
24813;SDS011;12904;50.088;11.414;2023-06-26T04:01:27;12.40;;;11.30;;
24813;SDS011;12904;50.088;11.414;2023-06-26T04:03:53;12.27;;;11.18;;
24813;SDS011;12904;50.088;11.414;2023-06-26T04:06:19;11.75;;;10.63;;
24813;SDS011;12904;50.088;11.414;2023-06-26T04:08:45;10.30;;;8.95;;
24813;SDS011;12904;50.088;11.414;2023-06-26T04:11:10;9.43;;;8.45;;
24813;SDS011;12904;50.088;11.414;2023-06-26T04:13:36;9.82;;;8.10;;
24813;SDS011;12904;50.088;11.414;2023-06-26T04:16:01;11.55;;;8.77;;
24813;SDS011;12904;50.088;11.414;2023-06-26T04:18:27;10.88;;;8.75;;
24813;SDS011;12904;50.088;11.414;2023-06-26T04:23:36;11.27;;;10.35;;
24813;SDS011;12904;50.088;11.414;2023-06-26T04:26:02;11.10;;;10.07;;
24813;SDS011;12904;50.088;11.414;2023-06-26T04:28:29;11.55;;;10.35;;
24813;SDS011;12904;50.088;11.414;2023-06-26T04:30:58;11.30;;;10.23;;
24813;SDS011;12904;50.088;11.414;2023-06-26T04:33:25;11.98;;;11.07;;
24813;SDS011;12904;50.088;11.414;2023-06-26T04:35:51;13.13;;;11.50;;
24813;SDS011;12904;50.088;11.414;2023-06-26T04:38:17;12.40;;;11.30;;
24813;SDS011;12904;50.088;11.414;2023-06-26T04:40:45;11.52;;;10.57;;
24813;SDS011;12904;50.088;11.414;2023-06-26T04:43:10;12.82;;;9.82;;
24813;SDS011;12904;50.088;11.414;2023-06-26T04:45:36;11.73;;;10.63;;
24813;SDS011;12904;50.088;11.414;2023-06-26T04:48:02;13.32;;;10.93;;
24813;SDS011;12904;50.088;11.414;2023-06-26T04:50:28;13.52;;;12.02;;
24813;SDS011;12904;50.088;11.414;2023-06-26T04:52:56;11.48;;;10.30;;
24813;SDS011;12904;50.088;11.414;2023-06-26T04:55:23;13.50;;;12.18;;
24813;SDS011;12904;50.088;11.414;2023-06-26T04:57:49;13.45;;;12.15;;
24813;SDS011;12904;50.088;11.414;2023-06-26T05:00:15;13.88;;;12.57;;
24813;SDS011;12904;50.088;11.414;2023-06-26T05:02:41;12.45;;;11.20;;
24813;SDS011;12904;50.088;11.414;2023-06-26T05:05:07;13.25;;;12.20;;
24813;SDS011;12904;50.088;11.414;2023-06-26T05:07:33;20.75;;;11.75;;
24813;SDS011;12904;50.088;11.414;2023-06-26T05:09:59;12.63;;;11.63;;
24813;SDS011;12904;50.088;11.414;2023-06-26T05:12:24;13.32;;;10.73;;
24813;SDS011;12904;50.088;11.414;2023-06-26T05:14:50;12.27;;;11.23;;
24813;SDS011;12904;50.088;11.414;2023-06-26T05:17:16;11.30;;;10.40;;
24813;SDS011;12904;50.088;11.414;2023-06-26T05:19:41;11.18;;;10.23;;
24813;SDS011;12904;50.088;11.414;2023-06-26T05:22:07;15.18;;;11.43;;
24813;SDS011;12904;50.088;11.414;2023-06-26T05:24:34;12.40;;;10.38;;
24813;SDS011;12904;50.088;11.414;2023-06-26T05:27:01;10.55;;;9.55;;
24813;SDS011;12904;50.088;11.414;2023-06-26T05:29:27;11.27;;;10.23;;
24813;SDS011;12904;50.088;11.414;2023-06-26T05:31:55;11.75;;;10.77;;
24813;SDS011;12904;50.088;11.414;2023-06-26T05:34:22;11.32;;;10.40;;
24813;SDS011;12904;50.088;11.414;2023-06-26T05:36:50;10.82;;;9.93;;
24813;SDS011;12904;50.088;11.414;2023-06-26T05:39:16;11.45;;;10.35;;
24813;SDS011;12904;50.088;11.414;2023-06-26T05:41:46;11.02;;;9.90;;
24813;SDS011;12904;50.088;11.414;2023-06-26T05:44:12;11.25;;;10.18;;
24813;SDS011;12904;50.088;11.414;2023-06-26T05:46:38;11.32;;;10.30;;
24813;SDS011;12904;50.088;11.414;2023-06-26T05:49:03;10.68;;;9.55;;
24813;SDS011;12904;50.088;11.414;2023-06-26T05:51:29;10.60;;;9.70;;
24813;SDS011;12904;50.088;11.414;2023-06-26T05:53:55;13.82;;;10.27;;
24813;SDS011;12904;50.088;11.414;2023-06-26T05:56:21;11.15;;;10.25;;
24813;SDS011;12904;50.088;11.414;2023-06-26T05:58:47;9.85;;;8.98;;
24813;SDS011;12904;50.088;11.414;2023-06-26T06:01:13;11.93;;;10.63;;
24813;SDS011;12904;50.088;11.414;2023-06-26T06:03:39;12.45;;;9.95;;
24813;SDS011;12904;50.088;11.414;2023-06-26T06:06:05;10.45;;;9.60;;
24813;SDS011;12904;50.088;11.414;2023-06-26T06:08:31;9.90;;;9.13;;
24813;SDS011;12904;50.088;11.414;2023-06-26T06:10:57;10.32;;;9.18;;
24813;SDS011;12904;50.088;11.414;2023-06-26T06:13:22;9.80;;;9.00;;
24813;SDS011;12904;50.088;11.414;2023-06-26T06:15:48;12.75;;;9.63;;
24813;SDS011;12904;50.088;11.414;2023-06-26T06:18:14;10.57;;;9.45;;
24813;SDS011;12904;50.088;11.414;2023-06-26T06:20:40;9.55;;;8.85;;
24813;SDS011;12904;50.088;11.414;2023-06-26T06:23:05;10.32;;;9.25;;
24813;SDS011;12904;50.088;11.414;2023-06-26T06:25:31;9.70;;;8.70;;
24813;SDS011;12904;50.088;11.414;2023-06-26T06:27:57;9.38;;;8.57;;
24813;SDS011;12904;50.088;11.414;2023-06-26T06:30:22;9.30;;;8.60;;
24813;SDS011;12904;50.088;11.414;2023-06-26T06:32:48;9.63;;;8.63;;
24813;SDS011;12904;50.088;11.414;2023-06-26T06:35:19;8.98;;;8.25;;
24813;SDS011;12904;50.088;11.414;2023-06-26T06:37:45;8.55;;;7.88;;
24813;SDS011;12904;50.088;11.414;2023-06-26T06:40:10;8.23;;;7.63;;
24813;SDS011;12904;50.088;11.414;2023-06-26T06:42:36;11.55;;;8.40;;
24813;SDS011;12904;50.088;11.414;2023-06-26T06:45:03;8.63;;;8.00;;
24813;SDS011;12904;50.088;11.414;2023-06-26T06:47:29;8.35;;;7.70;;
24813;SDS011;12904;50.088;11.414;2023-06-26T06:49:55;8.02;;;7.35;;
24813;SDS011;12904;50.088;11.414;2023-06-26T06:52:21;8.15;;;7.45;;
24813;SDS011;12904;50.088;11.414;2023-06-26T06:54:53;8.55;;;7.85;;
24813;SDS011;12904;50.088;11.414;2023-06-26T06:57:20;8.25;;;7.57;;
24813;SDS011;12904;50.088;11.414;2023-06-26T06:59:47;7.88;;;7.28;;
24813;SDS011;12904;50.088;11.414;2023-06-26T07:02:14;7.13;;;6.63;;
24813;SDS011;12904;50.088;11.414;2023-06-26T07:04:41;8.07;;;7.35;;
24813;SDS011;12904;50.088;11.414;2023-06-26T07:07:06;8.15;;;7.35;;
24813;SDS011;12904;50.088;11.414;2023-06-26T07:09:32;8.15;;;7.47;;
24813;SDS011;12904;50.088;11.414;2023-06-26T07:11:58;7.20;;;6.57;;
24813;SDS011;12904;50.088;11.414;2023-06-26T07:14:23;8.38;;;7.25;;
24813;SDS011;12904;50.088;11.414;2023-06-26T07:16:49;8.65;;;7.82;;
24813;SDS011;12904;50.088;11.414;2023-06-26T07:19:14;8.30;;;7.50;;
24813;SDS011;12904;50.088;11.414;2023-06-26T07:21:40;8.95;;;7.40;;
24813;SDS011;12904;50.088;11.414;2023-06-26T07:24:07;7.35;;;6.75;;
24813;SDS011;12904;50.088;11.414;2023-06-26T07:26:33;7.22;;;6.57;;
24813;SDS011;12904;50.088;11.414;2023-06-26T07:28:58;7.60;;;6.95;;
24813;SDS011;12904;50.088;11.414;2023-06-26T07:31:24;8.32;;;7.28;;
24813;SDS011;12904;50.088;11.414;2023-06-26T07:33:49;7.68;;;7.07;;
24813;SDS011;12904;50.088;11.414;2023-06-26T07:36:15;14.88;;;8.45;;
24813;SDS011;12904;50.088;11.414;2023-06-26T07:38:41;8.52;;;6.88;;
24813;SDS011;12904;50.088;11.414;2023-06-26T07:41:06;7.50;;;6.90;;
24813;SDS011;12904;50.088;11.414;2023-06-26T07:43:32;7.40;;;6.80;;
24813;SDS011;12904;50.088;11.414;2023-06-26T07:45:57;7.32;;;6.57;;
24813;SDS011;12904;50.088;11.414;2023-06-26T07:48:26;6.93;;;6.22;;
24813;SDS011;12904;50.088;11.414;2023-06-26T07:50:52;14.13;;;6.88;;
24813;SDS011;12904;50.088;11.414;2023-06-26T07:53:18;6.53;;;6.03;;
24813;SDS011;12904;50.088;11.414;2023-06-26T07:55:44;7.05;;;6.53;;
24813;SDS011;12904;50.088;11.414;2023-06-26T07:58:10;8.43;;;6.70;;
24813;SDS011;12904;50.088;11.414;2023-06-26T08:00:36;7.43;;;6.68;;
24813;SDS011;12904;50.088;11.414;2023-06-26T08:03:02;6.82;;;6.22;;
24813;SDS011;12904;50.088;11.414;2023-06-26T08:05:27;7.18;;;6.57;;
24813;SDS011;12904;50.088;11.414;2023-06-26T08:07:53;6.50;;;6.00;;
24813;SDS011;12904;50.088;11.414;2023-06-26T08:10:19;7.95;;;7.22;;
24813;SDS011;12904;50.088;11.414;2023-06-26T08:12:44;7.18;;;6.57;;
24813;SDS011;12904;50.088;11.414;2023-06-26T08:15:11;6.72;;;6.13;;
24813;SDS011;12904;50.088;11.414;2023-06-26T08:17:37;6.75;;;6.15;;
24813;SDS011;12904;50.088;11.414;2023-06-26T08:20:03;7.07;;;5.90;;
24813;SDS011;12904;50.088;11.414;2023-06-26T08:22:30;7.18;;;6.57;;
24813;SDS011;12904;50.088;11.414;2023-06-26T08:24:56;7.93;;;7.13;;
24813;SDS011;12904;50.088;11.414;2023-06-26T08:27:22;7.43;;;6.70;;
24813;SDS011;12904;50.088;11.414;2023-06-26T08:29:47;6.38;;;5.88;;
24813;SDS011;12904;50.088;11.414;2023-06-26T08:32:13;7.30;;;6.47;;
24813;SDS011;12904;50.088;11.414;2023-06-26T08:34:38;6.68;;;6.18;;
24813;SDS011;12904;50.088;11.414;2023-06-26T08:37:04;7.60;;;7.00;;
24813;SDS011;12904;50.088;11.414;2023-06-26T08:39:30;6.78;;;6.18;;
24813;SDS011;12904;50.088;11.414;2023-06-26T08:41:56;6.20;;;5.70;;
24813;SDS011;12904;50.088;11.414;2023-06-26T08:44:21;6.38;;;5.88;;
24813;SDS011;12904;50.088;11.414;2023-06-26T08:46:50;6.82;;;6.22;;
24813;SDS011;12904;50.088;11.414;2023-06-26T08:49:27;13.60;;;6.63;;
24813;SDS011;12904;50.088;11.414;2023-06-26T08:52:10;6.35;;;5.63;;
24813;SDS011;12904;50.088;11.414;2023-06-26T08:54:45;7.07;;;6.03;;
24813;SDS011;12904;50.088;11.414;2023-06-26T08:59:41;8.18;;;6.15;;
24813;SDS011;12904;50.088;11.414;2023-06-26T09:02:07;6.50;;;6.05;;
24813;SDS011;12904;50.088;11.414;2023-06-26T09:04:33;6.60;;;6.00;;
24813;SDS011;12904;50.088;11.414;2023-06-26T09:07:00;6.63;;;5.88;;
24813;SDS011;12904;50.088;11.414;2023-06-26T09:09:25;6.95;;;6.25;;
24813;SDS011;12904;50.088;11.414;2023-06-26T09:11:51;6.72;;;6.10;;
24813;SDS011;12904;50.088;11.414;2023-06-26T09:14:16;7.00;;;6.40;;
24813;SDS011;12904;50.088;11.414;2023-06-26T09:16:42;6.13;;;5.47;;
24813;SDS011;12904;50.088;11.414;2023-06-26T09:19:09;6.38;;;5.80;;
24813;SDS011;12904;50.088;11.414;2023-06-26T09:21:37;6.75;;;6.15;;
24813;SDS011;12904;50.088;11.414;2023-06-26T09:24:07;6.70;;;6.10;;
24813;SDS011;12904;50.088;11.414;2023-06-26T09:26:37;6.63;;;6.05;;
24813;SDS011;12904;50.088;11.414;2023-06-26T09:29:06;7.97;;;5.77;;
24813;SDS011;12904;50.088;11.414;2023-06-26T09:31:33;6.27;;;5.77;;
24813;SDS011;12904;50.088;11.414;2023-06-26T09:34:01;5.65;;;5.15;;
24813;SDS011;12904;50.088;11.414;2023-06-26T09:36:31;5.95;;;5.32;;
24813;SDS011;12904;50.088;11.414;2023-06-26T09:39:01;5.88;;;5.28;;
24813;SDS011;12904;50.088;11.414;2023-06-26T09:41:27;5.30;;;4.90;;
24813;SDS011;12904;50.088;11.414;2023-06-26T09:43:53;5.55;;;4.88;;
24813;SDS011;12904;50.088;11.414;2023-06-26T09:49:01;4.80;;;4.30;;
24813;SDS011;12904;50.088;11.414;2023-06-26T09:51:31;5.30;;;4.80;;
24813;SDS011;12904;50.088;11.414;2023-06-26T09:54:02;5.60;;;4.70;;
24813;SDS011;12904;50.088;11.414;2023-06-26T09:56:29;6.03;;;4.82;;
24813;SDS011;12904;50.088;11.414;2023-06-26T09:58:55;5.30;;;4.90;;
24813;SDS011;12904;50.088;11.414;2023-06-26T10:01:24;4.88;;;4.45;;
24813;SDS011;12904;50.088;11.414;2023-06-26T10:03:51;5.43;;;4.93;;
24813;SDS011;12904;50.088;11.414;2023-06-26T10:08:54;5.80;;;5.30;;
24813;SDS011;12904;50.088;11.414;2023-06-26T10:11:21;4.90;;;4.40;;
24813;SDS011;12904;50.088;11.414;2023-06-26T10:13:49;5.05;;;4.65;;
24813;SDS011;12904;50.088;11.414;2023-06-26T10:16:22;4.70;;;4.30;;
24813;SDS011;12904;50.088;11.414;2023-06-26T10:18:55;4.15;;;3.85;;
24813;SDS011;12904;50.088;11.414;2023-06-26T10:21:26;5.45;;;4.53;;
24813;SDS011;12904;50.088;11.414;2023-06-26T10:23:54;5.22;;;4.70;;
24813;SDS011;12904;50.088;11.414;2023-06-26T10:26:21;4.47;;;4.07;;
24813;SDS011;12904;50.088;11.414;2023-06-26T10:28:49;5.10;;;4.70;;
24813;SDS011;12904;50.088;11.414;2023-06-26T10:31:18;4.90;;;4.50;;
24813;SDS011;12904;50.088;11.414;2023-06-26T10:33:47;6.72;;;5.00;;
24813;SDS011;12904;50.088;11.414;2023-06-26T10:36:15;4.97;;;4.28;;
24813;SDS011;12904;50.088;11.414;2023-06-26T10:38:52;4.75;;;4.35;;
24813;SDS011;12904;50.088;11.414;2023-06-26T10:41:21;4.75;;;4.35;;
24813;SDS011;12904;50.088;11.414;2023-06-26T10:44:12;5.10;;;4.68;;
24813;SDS011;12904;50.088;11.414;2023-06-26T10:46:50;5.38;;;4.90;;
24813;SDS011;12904;50.088;11.414;2023-06-26T10:49:20;5.63;;;5.13;;
24813;SDS011;12904;50.088;11.414;2023-06-26T10:51:49;5.47;;;4.97;;
24813;SDS011;12904;50.088;11.414;2023-06-26T10:54:16;5.30;;;4.50;;
24813;SDS011;12904;50.088;11.414;2023-06-26T10:56:45;4.95;;;4.55;;
24813;SDS011;12904;50.088;11.414;2023-06-26T10:59:13;5.38;;;4.97;;
24813;SDS011;12904;50.088;11.414;2023-06-26T11:01:41;5.30;;;4.90;;
24813;SDS011;12904;50.088;11.414;2023-06-26T11:04:10;6.50;;;6.00;;
24813;SDS011;12904;50.088;11.414;2023-06-26T11:06:37;6.13;;;5.50;;
24813;SDS011;12904;50.088;11.414;2023-06-26T11:14:17;5.63;;;5.13;;
24813;SDS011;12904;50.088;11.414;2023-06-26T11:16:43;5.78;;;5.28;;
24813;SDS011;12904;50.088;11.414;2023-06-26T11:19:09;6.28;;;5.78;;
24813;SDS011;12904;50.088;11.414;2023-06-26T11:21:36;6.95;;;5.55;;
24813;SDS011;12904;50.088;11.414;2023-06-26T11:24:03;5.00;;;4.50;;
24813;SDS011;12904;50.088;11.414;2023-06-26T11:26:31;12.63;;;5.88;;
24813;SDS011;12904;50.088;11.414;2023-06-26T11:29:03;6.88;;;6.10;;
24813;SDS011;12904;50.088;11.414;2023-06-26T11:33:56;5.93;;;5.43;;
24813;SDS011;12904;50.088;11.414;2023-06-26T11:36:26;5.97;;;5.47;;
24813;SDS011;12904;50.088;11.414;2023-06-26T11:38:53;6.18;;;5.60;;
24813;SDS011;12904;50.088;11.414;2023-06-26T11:41:23;7.18;;;5.45;;
24813;SDS011;12904;50.088;11.414;2023-06-26T11:43:51;5.30;;;4.88;;
24813;SDS011;12904;50.088;11.414;2023-06-26T11:46:18;7.38;;;5.05;;
24813;SDS011;12904;50.088;11.414;2023-06-26T11:48:44;5.25;;;4.80;;
24813;SDS011;12904;50.088;11.414;2023-06-26T11:51:12;12.32;;;5.65;;
24813;SDS011;12904;50.088;11.414;2023-06-26T11:53:40;6.47;;;5.60;;
24813;SDS011;12904;50.088;11.414;2023-06-26T11:56:12;6.57;;;5.70;;
24813;SDS011;12904;50.088;11.414;2023-06-26T11:58:55;6.50;;;5.78;;
24813;SDS011;12904;50.088;11.414;2023-06-26T12:01:32;5.88;;;5.40;;
24813;SDS011;12904;50.088;11.414;2023-06-26T12:04:04;6.25;;;5.80;;
24813;SDS011;12904;50.088;11.414;2023-06-26T12:06:34;6.80;;;6.25;;
24813;SDS011;12904;50.088;11.414;2023-06-26T12:09:01;6.55;;;5.10;;
24813;SDS011;12904;50.088;11.414;2023-06-26T12:11:30;6.80;;;6.20;;
24813;SDS011;12904;50.088;11.414;2023-06-26T12:13:57;6.75;;;6.15;;
24813;SDS011;12904;50.088;11.414;2023-06-26T12:16:23;6.50;;;5.93;;
24813;SDS011;12904;50.088;11.414;2023-06-26T12:18:48;6.57;;;5.97;;
24813;SDS011;12904;50.088;11.414;2023-06-26T12:24:02;5.88;;;5.47;;
24813;SDS011;12904;50.088;11.414;2023-06-26T12:26:28;8.00;;;5.43;;
24813;SDS011;12904;50.088;11.414;2023-06-26T12:29:07;5.63;;;5.10;;
24813;SDS011;12904;50.088;11.414;2023-06-26T12:31:34;5.95;;;5.45;;
24813;SDS011;12904;50.088;11.414;2023-06-26T12:34:08;5.72;;;5.30;;
24813;SDS011;12904;50.088;11.414;2023-06-26T12:36:45;5.47;;;5.07;;
24813;SDS011;12904;50.088;11.414;2023-06-26T12:39:14;6.53;;;5.97;;
24813;SDS011;12904;50.088;11.414;2023-06-26T12:41:54;5.72;;;5.32;;
24813;SDS011;12904;50.088;11.414;2023-06-26T12:44:25;5.82;;;5.32;;
24813;SDS011;12904;50.088;11.414;2023-06-26T12:46:58;6.13;;;5.28;;
24813;SDS011;12904;50.088;11.414;2023-06-26T12:49:34;6.10;;;4.85;;
24813;SDS011;12904;50.088;11.414;2023-06-26T12:52:01;5.07;;;4.68;;
24813;SDS011;12904;50.088;11.414;2023-06-26T12:54:30;7.75;;;4.90;;
24813;SDS011;12904;50.088;11.414;2023-06-26T12:56:56;6.57;;;5.07;;
24813;SDS011;12904;50.088;11.414;2023-06-26T12:59:22;6.40;;;4.32;;
24813;SDS011;12904;50.088;11.414;2023-06-26T13:01:48;5.28;;;4.63;;
24813;SDS011;12904;50.088;11.414;2023-06-26T13:04:14;4.25;;;3.95;;
24813;SDS011;12904;50.088;11.414;2023-06-26T13:06:40;4.65;;;4.25;;
24813;SDS011;12904;50.088;11.414;2023-06-26T13:09:05;4.70;;;4.30;;
24813;SDS011;12904;50.088;11.414;2023-06-26T13:11:31;4.93;;;4.35;;
24813;SDS011;12904;50.088;11.414;2023-06-26T13:14:00;4.30;;;3.90;;
24813;SDS011;12904;50.088;11.414;2023-06-26T13:16:26;5.38;;;4.13;;
24813;SDS011;12904;50.088;11.414;2023-06-26T13:18:52;6.60;;;4.55;;
24813;SDS011;12904;50.088;11.414;2023-06-26T13:21:17;5.60;;;5.10;;
24813;SDS011;12904;50.088;11.414;2023-06-26T13:23:43;5.30;;;4.65;;
24813;SDS011;12904;50.088;11.414;2023-06-26T13:26:10;7.35;;;4.68;;
24813;SDS011;12904;50.088;11.414;2023-06-26T13:28:36;4.78;;;4.38;;
24813;SDS011;12904;50.088;11.414;2023-06-26T13:31:02;4.90;;;4.45;;
24813;SDS011;12904;50.088;11.414;2023-06-26T13:33:28;4.97;;;4.53;;
24813;SDS011;12904;50.088;11.414;2023-06-26T13:35:54;6.00;;;4.43;;
24813;SDS011;12904;50.088;11.414;2023-06-26T13:38:20;4.80;;;4.40;;
24813;SDS011;12904;50.088;11.414;2023-06-26T13:40:54;5.07;;;4.57;;
24813;SDS011;12904;50.088;11.414;2023-06-26T13:43:22;5.60;;;5.10;;
24813;SDS011;12904;50.088;11.414;2023-06-26T13:45:48;6.60;;;4.50;;
24813;SDS011;12904;50.088;11.414;2023-06-26T13:48:14;4.93;;;4.53;;
24813;SDS011;12904;50.088;11.414;2023-06-26T13:50:40;5.32;;;4.82;;
24813;SDS011;12904;50.088;11.414;2023-06-26T13:53:06;6.05;;;5.18;;
24813;SDS011;12904;50.088;11.414;2023-06-26T13:55:33;5.45;;;5.00;;
24813;SDS011;12904;50.088;11.414;2023-06-26T13:57:59;4.40;;;4.00;;
24813;SDS011;12904;50.088;11.414;2023-06-26T14:00:29;4.95;;;4.55;;
24813;SDS011;12904;50.088;11.414;2023-06-26T14:02:54;4.57;;;4.25;;
24813;SDS011;12904;50.088;11.414;2023-06-26T14:05:21;5.30;;;4.70;;
24813;SDS011;12904;50.088;11.414;2023-06-26T14:07:47;5.43;;;4.95;;
24813;SDS011;12904;50.088;11.414;2023-06-26T14:10:13;4.85;;;4.18;;
24813;SDS011;12904;50.088;11.414;2023-06-26T14:12:40;4.93;;;4.53;;
24813;SDS011;12904;50.088;11.414;2023-06-26T14:15:06;4.57;;;4.18;;
24813;SDS011;12904;50.088;11.414;2023-06-26T14:17:32;5.03;;;4.60;;
24813;SDS011;12904;50.088;11.414;2023-06-26T14:19:58;5.18;;;4.78;;
24813;SDS011;12904;50.088;11.414;2023-06-26T14:22:24;10.85;;;4.63;;
24813;SDS011;12904;50.088;11.414;2023-06-26T14:24:50;5.38;;;4.85;;
24813;SDS011;12904;50.088;11.414;2023-06-26T14:27:15;5.25;;;4.75;;
24813;SDS011;12904;50.088;11.414;2023-06-26T14:29:41;5.00;;;4.60;;
24813;SDS011;12904;50.088;11.414;2023-06-26T14:32:07;5.78;;;4.68;;
24813;SDS011;12904;50.088;11.414;2023-06-26T14:34:32;4.80;;;4.35;;
24813;SDS011;12904;50.088;11.414;2023-06-26T14:36:58;5.20;;;4.70;;
24813;SDS011;12904;50.088;11.414;2023-06-26T14:39:24;7.30;;;4.63;;
24813;SDS011;12904;50.088;11.414;2023-06-26T14:41:50;5.72;;;5.25;;
24813;SDS011;12904;50.088;11.414;2023-06-26T14:44:16;6.95;;;5.03;;
24813;SDS011;12904;50.088;11.414;2023-06-26T14:46:41;8.00;;;4.63;;
24813;SDS011;12904;50.088;11.414;2023-06-26T14:49:07;5.63;;;5.13;;
24813;SDS011;12904;50.088;11.414;2023-06-26T14:51:33;6.90;;;5.20;;
24813;SDS011;12904;50.088;11.414;2023-06-26T14:53:59;5.82;;;5.43;;
24813;SDS011;12904;50.088;11.414;2023-06-26T14:56:25;5.85;;;5.35;;
24813;SDS011;12904;50.088;11.414;2023-06-26T14:58:51;6.03;;;5.53;;